Time;durP1;ratioP1;P1;durP2;ratioP2;P2;SDS_P1;SDS_P2;PMS_P1;PMS_P2;Temp;Humidity;BMP_temperature;BMP_pressure;BME280_temperature;BME280_humidity;BME280_pressure;Samples;Min_cycle;Max_cycle;Signal;HPM_P1;HPM_P2
2022/01/21 00:01:28;;;;;;;1.93;1.07;;;-1.60;42.50;;;;;;8478987;27;20268;-69
2022/01/21 00:05:29;;;;;;;5.23;1.40;;;-1.60;99.90;;;;;;8472140;27;20238;-70
2022/01/21 00:09:30;;;;;;;4.80;1.40;;;-1.60;1.00;;;;;;8466690;27;20186;-69
2022/01/21 00:13:34;;;;;;;4.43;1.43;;;-1.60;29.80;;;;;;8455638;27;20191;-69
2022/01/21 00:17:35;;;;;;;6.00;1.73;;;-1.70;1.00;;;;;;8471698;27;20207;-68
2022/01/21 00:30:17;;;;;;;5.00;1.20;;;-1.70;1.00;;;;;;8477377;27;20187;-69
2022/01/21 00:34:18;;;;;;;2.87;1.27;;;-1.60;99.90;;;;;;8477086;27;20183;-69
2022/01/21 00:38:21;;;;;;;11.13;1.93;;;-1.70;99.90;;;;;;8483999;27;20178;-69
2022/01/21 00:46:23;;;;;;;7.60;1.30;;;-1.80;99.90;;;;;;8453665;28;20223;-68
2022/01/21 00:50:24;;;;;;;4.73;1.37;;;-2.00;1.00;;;;;;8481892;28;20175;-69
2022/01/21 00:54:25;;;;;;;4.50;1.10;;;-2.10;42.20;;;;;;8463853;28;20322;-69
2022/01/21 00:58:26;;;;;;;8.10;1.30;;;-2.20;1.00;;;;;;8475563;28;20199;-68
2022/01/21 01:02:28;;;;;;;5.60;1.73;;;-2.30;22.10;;;;;;8476993;28;20190;-70
2022/01/21 01:06:29;;;;;;;5.00;1.60;;;-2.30;57.70;;;;;;8464540;28;20200;-69
2022/01/21 01:24:00;;;;;;;7.23;0.93;;;-2.40;1.00;;;;;;8467161;27;20190;-69
2022/01/21 01:28:00;;;;;;;3.97;1.20;;;-2.40;1.00;;;;;;8463198;27;20263;-69
2022/01/21 01:32:00;;;;;;;3.07;1.03;;;-2.40;99.90;;;;;;8480645;27;20223;-69
2022/01/21 01:36:03;;;;;;;9.33;1.17;;;-2.40;99.90;;;;;;8482117;27;20228;-69
2022/01/21 01:40:42;;;;;;;2.07;0.73;;;-2.40;1.00;;;;;;8491284;27;20186;-69
2022/01/21 01:53:10;;;;;;;5.63;1.57;;;-2.50;99.90;;;;;;8491458;27;20222;-69
2022/01/21 01:57:11;;;;;;;3.00;1.13;;;-2.50;1.00;;;;;;8484651;27;20211;-69
2022/01/21 02:01:12;;;;;;;2.93;1.07;;;-2.50;99.90;;;;;;8479260;27;20275;-69
2022/01/21 02:05:13;;;;;;;3.67;0.90;;;-2.50;99.90;;;;;;8481836;27;20186;-69
2022/01/21 02:09:14;;;;;;;1.37;0.70;;;-2.50;99.90;;;;;;8471771;27;20179;-70
2022/01/21 02:13:27;;;;;;;1.30;0.53;;;-2.50;99.90;;;;;;8471732;27;20175;-70
2022/01/21 02:25:31;;;;;;;5.43;1.10;;;-2.50;1.00;;;;;;8480798;27;20179;-69
2022/01/21 02:29:43;;;;;;;2.40;0.83;;;-2.50;1.00;;;;;;8467119;27;20218;-70
2022/01/21 02:33:44;;;;;;;2.53;1.00;;;-2.30;99.90;;;;;;8472855;27;20180;-70
2022/01/21 02:37:45;;;;;;;5.17;1.20;;;-2.30;99.90;;;;;;8483231;27;20175;-70
2022/01/21 02:41:46;;;;;;;1.93;0.93;;;-2.30;99.90;;;;;;8484581;27;20181;-68
2022/01/21 02:45:47;;;;;;;2.97;1.17;;;-2.30;99.90;;;;;;8475920;27;20202;-70
2022/01/21 02:49:49;;;;;;;3.53;1.07;;;-2.30;99.90;;;;;;8474400;27;20179;-70
2022/01/21 02:57:53;;;;;;;1.80;0.93;;;-2.40;1.00;;;;;;8478408;27;20198;-70
2022/01/21 03:01:54;;;;;;;0.77;0.70;;;-2.40;1.00;;;;;;8485100;27;20206;-70
2022/01/21 03:05:55;;;;;;;1.30;1.20;;;-2.40;99.90;;;;;;8488367;27;20291;-70
2022/01/21 03:09:56;;;;;;;5.80;1.20;;;-2.30;1.00;;;;;;8468373;27;20179;-70
2022/01/21 03:13:57;;;;;;;7.93;1.03;;;-2.30;1.00;;;;;;8481795;27;20614;-71
2022/01/21 03:17:57;;;;;;;5.50;1.20;;;-2.30;99.90;;;;;;8474762;27;20200;-70
2022/01/21 03:21:58;;;;;;;2.17;1.00;;;-2.20;99.90;;;;;;8482368;27;20187;-70
2022/01/21 03:25:59;;;;;;;6.17;1.20;;;-2.20;99.90;;;;;;8467658;27;20207;-69
2022/01/21 03:30:02;;;;;;;2.23;1.00;;;-2.10;99.90;;;;;;8471212;27;21263;-70
2022/01/21 03:34:04;;;;;;;3.27;1.10;;;-2.00;1.00;;;;;;8478410;27;20466;-70
2022/01/21 03:38:04;;;;;;;3.40;0.97;;;-2.00;1.00;;;;;;8478461;27;20248;-70
2022/01/21 03:42:06;;;;;;;1.67;0.87;;;-2.00;1.00;;;;;;8481612;27;20179;-69
2022/01/21 03:46:06;;;;;;;5.40;1.10;;;-1.90;1.00;;;;;;8477123;27;20204;-70
2022/01/21 03:50:21;;;;;;;2.13;1.00;;;-1.90;99.90;;;;;;8487178;27;20182;-72
2022/01/21 03:54:22;;;;;;;3.90;0.93;;;-1.90;99.90;;;;;;8487408;27;20175;-69
2022/01/21 03:58:23;;;;;;;1.30;0.70;;;-1.90;97.20;;;;;;8479208;27;20200;-69
2022/01/21 04:02:24;;;;;;;4.03;0.80;;;-1.90;1.00;;;;;;8486931;27;20286;-70
2022/01/21 04:06:24;;;;;;;2.77;1.03;;;-2.00;1.00;;;;;;8481726;27;20252;-69
2022/01/21 04:10:25;;;;;;;5.63;0.90;;;-2.00;1.00;;;;;;8477927;27;20183;-69
2022/01/21 04:14:26;;;;;;;3.17;1.03;;;-2.00;1.00;;;;;;8470782;27;20180;-69
2022/01/21 04:18:27;;;;;;;6.33;1.27;;;-1.90;99.90;;;;;;8468146;27;20260;-70
2022/01/21 04:22:28;;;;;;;3.43;0.80;;;-1.90;99.90;;;;;;8464235;27;20183;-70
2022/01/21 04:26:29;;;;;;;5.00;1.13;;;-1.80;99.90;;;;;;8487948;27;20364;-70
2022/01/21 04:30:30;;;;;;;5.70;1.00;;;-1.80;1.00;;;;;;8480699;27;20172;-70
2022/01/21 04:34:31;;;;;;;3.73;0.83;;;-1.70;99.90;;;;;;8482138;27;20505;-70
2022/01/21 04:38:32;;;;;;;4.17;0.87;;;-1.60;1.00;;;;;;8479706;27;20244;-70
2022/01/21 04:51:15;;;;;;;3.57;1.20;;;-1.50;99.90;;;;;;8487527;28;20191;-69
2022/01/21 04:55:16;;;;;;;2.50;1.10;;;-1.50;99.90;;;;;;8487346;28;20168;-69
2022/01/21 04:59:16;;;;;;;5.30;1.00;;;-1.50;1.00;;;;;;8479402;28;20217;-69
2022/01/21 05:03:18;;;;;;;4.80;1.33;;;-1.60;1.00;;;;;;8468721;28;20191;-70
2022/01/21 05:07:22;;;;;;;4.17;1.03;;;-1.70;99.90;;;;;;8457994;28;20271;-69
2022/01/21 05:11:23;;;;;;;4.33;1.23;;;-1.60;1.00;;;;;;8474296;28;20183;-69
2022/01/21 05:19:27;;;;;;;4.63;1.10;;;-1.70;1.00;;;;;;8479651;27;20195;-69
2022/01/21 05:23:29;;;;;;;3.13;1.20;;;-1.70;1.00;;;;;;8466118;27;20228;-70
2022/01/21 05:27:30;;;;;;;2.83;1.20;;;-1.80;1.00;;;;;;8454269;28;20212;-69
2022/01/21 05:31:31;;;;;;;3.70;0.77;;;-1.70;1.00;;;;;;8475646;27;20186;-70
2022/01/21 05:35:32;;;;;;;2.47;0.60;;;-1.80;1.00;;;;;;8485949;27;20172;-69
2022/01/21 05:39:33;;;;;;;1.80;0.97;;;-1.90;1.00;;;;;;8485453;27;20190;-70
2022/01/21 05:43:35;;;;;;;6.37;1.07;;;-1.90;1.00;;;;;;8462052;27;20233;-69
2022/01/21 05:47:36;;;;;;;2.50;0.87;;;-1.90;1.00;;;;;;8468486;27;20260;-69
2022/01/21 05:51:38;;;;;;;2.30;0.80;;;-1.90;99.90;;;;;;8469179;27;20184;-69
2022/01/21 05:55:41;;;;;;;1.23;0.73;;;-2.00;1.00;;;;;;8468100;27;20172;-70
2022/01/21 05:59:42;;;;;;;1.53;0.93;;;-2.10;1.00;;;;;;8481336;27;20186;-70
2022/01/21 06:03:43;;;;;;;3.10;0.53;;;-2.10;1.00;;;;;;8480102;27;20184;-69
2022/01/21 06:07:44;;;;;;;4.27;0.83;;;-2.10;99.90;;;;;;8469840;27;20195;-70
2022/01/21 06:11:45;;;;;;;6.47;1.07;;;-2.20;1.00;;;;;;8484166;27;20204;-70
2022/01/21 06:15:47;;;;;;;4.47;0.80;;;-2.20;99.90;;;;;;8481684;27;20205;-70
2022/01/21 06:19:47;;;;;;;3.37;0.80;;;-2.30;99.90;;;;;;8461175;27;20183;-70
2022/01/21 06:23:48;;;;;;;2.70;1.10;;;-2.30;1.00;;;;;;8466868;27;20215;-70
2022/01/21 06:27:49;;;;;;;3.17;1.00;;;-2.40;1.00;;;;;;8460715;27;20286;-70
2022/01/21 06:31:50;;;;;;;3.30;0.93;;;-2.50;1.00;;;;;;8480069;27;20178;-69
2022/01/21 06:35:51;;;;;;;2.00;0.90;;;-2.50;1.00;;;;;;8491152;27;20172;-73
2022/01/21 06:39:52;;;;;;;1.43;0.60;;;-2.50;1.00;;;;;;8485920;27;20187;-70
2022/01/21 06:43:53;;;;;;;8.17;1.03;;;-2.60;1.00;;;;;;8474523;27;20179;-70
2022/01/21 06:47:54;;;;;;;4.10;0.93;;;-2.70;99.90;;;;;;8478943;27;20199;-70
2022/01/21 06:51:55;;;;;;;6.53;0.97;;;-2.80;99.90;;;;;;8481799;27;20211;-70
2022/01/21 06:55:56;;;;;;;6.63;1.00;;;-2.80;93.10;;;;;;8487002;27;20194;-70
2022/01/21 06:59:57;;;;;;;1.13;0.70;;;-3.00;99.90;;;;;;8484448;27;20186;-70
2022/01/21 07:03:57;;;;;;;2.10;0.90;;;-3.00;99.90;;;;;;8467555;27;20179;-70
2022/01/21 07:07:59;;;;;;;3.67;1.13;;;-3.00;99.90;;;;;;8453876;28;20215;-70
2022/01/21 07:11:59;;;;;;;4.67;0.97;;;-3.10;99.90;;;;;;8467285;27;20225;-70
2022/01/21 07:16:00;;;;;;;1.90;1.50;;;-3.00;99.90;;;;;;8481659;27;20230;-70
2022/01/21 07:20:02;;;;;;;3.63;1.37;;;-3.10;1.00;;;;;;8462173;27;20209;-71
2022/01/21 07:24:03;;;;;;;2.63;0.83;;;-3.10;94.80;;;;;;8472710;27;20301;-70
2022/01/21 07:28:05;;;;;;;1.70;1.00;;;-3.10;1.00;;;;;;8453327;27;20200;-70
2022/01/21 07:32:06;;;;;;;3.70;1.40;;;-3.00;99.90;;;;;;8478426;27;20190;-70
2022/01/21 07:36:10;;;;;;;4.00;0.80;;;-3.00;99.90;;;;;;8475184;27;20183;-71
2022/01/21 07:40:11;;;;;;;3.80;1.17;;;-2.90;99.90;;;;;;8465284;27;20858;-70
2022/01/21 07:44:12;;;;;;;4.07;1.00;;;-2.90;99.90;;;;;;8473871;27;20238;-70
2022/01/21 07:48:13;;;;;;;2.33;0.73;;;-2.90;99.90;;;;;;8463321;27;20230;-71
2022/01/21 07:52:15;;;;;;;4.10;1.00;;;-2.90;99.90;;;;;;8455251;28;20220;-70
2022/01/21 07:56:16;;;;;;;3.43;1.20;;;-2.80;99.90;;;;;;8467425;27;20195;-72
2022/01/21 08:00:17;;;;;;;1.73;0.90;;;-2.80;99.90;;;;;;8478253;27;20189;-68
2022/01/21 08:04:17;;;;;;;5.73;1.20;;;-2.70;52.20;;;;;;8478891;27;20183;-69
2022/01/21 08:08:18;;;;;;;2.77;1.20;;;-2.70;1.00;;;;;;8476394;27;20203;-69
2022/01/21 08:12:19;;;;;;;2.30;0.90;;;-2.60;1.00;;;;;;8477898;27;20262;-70
2022/01/21 08:16:20;;;;;;;4.87;1.00;;;-2.50;1.00;;;;;;8467225;27;20203;-70
2022/01/21 08:20:22;;;;;;;4.67;0.90;;;-2.50;1.00;;;;;;8452702;28;20186;-70
2022/01/21 08:24:22;;;;;;;4.13;1.03;;;-2.40;1.00;;;;;;8481593;27;20190;-71
2022/01/21 08:28:23;;;;;;;5.13;1.10;;;-2.30;1.00;;;;;;8485783;27;20625;-70
2022/01/21 08:32:29;;;;;;;1.70;1.00;;;-2.20;99.90;;;;;;8478074;27;20189;-69
2022/01/21 08:36:30;;;;;;;3.80;1.00;;;-2.20;99.90;;;;;;8487200;27;20179;-69
2022/01/21 08:40:31;;;;;;;2.97;1.33;;;-2.10;99.90;;;;;;8473761;27;20263;-70
2022/01/21 08:44:33;;;;;;;2.67;1.03;;;-2.10;99.90;;;;;;8467363;27;20282;-70
2022/01/21 08:48:34;;;;;;;2.93;1.20;;;-2.00;99.90;;;;;;8470556;28;20213;-70
2022/01/21 08:52:40;;;;;;;3.37;1.03;;;-1.90;99.90;;;;;;8476773;27;20194;-69
2022/01/21 08:56:43;;;;;;;3.90;1.07;;;-1.80;90.50;;;;;;8484051;27;20599;-69
2022/01/21 09:00:44;;;;;;;3.53;1.10;;;-1.70;99.90;;;;;;8464778;27;20185;-70
2022/01/21 09:04:45;;;;;;;3.63;1.13;;;-1.70;98.70;;;;;;8456617;28;20263;-69
2022/01/21 09:08:46;;;;;;;2.90;1.00;;;-1.60;99.90;;;;;;8485621;28;20219;-70
2022/01/21 09:12:47;;;;;;;3.50;1.10;;;-1.50;99.90;;;;;;8471819;28;20186;-69
2022/01/21 09:16:48;;;;;;;3.30;0.90;;;-1.40;18.00;;;;;;8463808;28;20211;-69
2022/01/21 09:20:49;;;;;;;4.50;1.20;;;-1.30;1.00;;;;;;8452004;28;20237;-69
2022/01/21 09:24:49;;;;;;;3.23;1.10;;;-1.30;30.60;;;;;;8482293;28;20197;-70
2022/01/21 09:28:51;;;;;;;4.03;0.93;;;-1.20;98.10;;;;;;8481362;27;20211;-70
2022/01/21 09:32:52;;;;;;;2.13;0.97;;;-1.10;20.30;;;;;;8482090;27;20233;-69
2022/01/21 09:36:55;;;;;;;4.57;0.93;;;-1.10;1.00;;;;;;8492842;27;20176;-69
2022/01/21 09:40:57;;;;;;;3.07;1.10;;;-1.00;1.00;;;;;;8489122;27;20245;-69
2022/01/21 09:44:59;;;;;;;3.40;1.10;;;-1.00;1.00;;;;;;8485435;27;20187;-68
2022/01/21 09:49:20;;;;;;;6.67;1.03;;;-1.00;1.00;;;;;;8492893;27;20200;-69
2022/01/21 09:53:30;;;;;;;8.27;1.80;;;-0.90;67.20;;;;;;8491790;27;20201;-69
2022/01/21 09:57:31;;;;;;;4.33;1.10;;;-0.80;1.00;;;;;;8487333;27;20195;-69
2022/01/21 10:01:33;;;;;;;2.83;1.00;;;-0.80;1.00;;;;;;8480906;27;20240;-69
2022/01/21 10:05:35;;;;;;;4.20;1.10;;;-0.70;1.00;;;;;;8491008;27;20593;-69
2022/01/21 10:09:38;;;;;;;3.53;1.27;;;-0.70;1.00;;;;;;8463016;27;20282;-68
2022/01/21 10:13:39;;;;;;;3.13;1.23;;;-0.60;32.00;;;;;;8472894;27;20186;-69
2022/01/21 10:17:59;;;;;;;3.63;1.03;;;-0.50;1.00;;;;;;8478850;27;20202;-69
2022/01/21 10:22:16;;;;;;;4.10;1.23;;;-0.40;1.00;;;;;;8484958;27;20174;-68
2022/01/21 10:26:19;;;;;;;1.87;0.90;;;-0.40;12.10;;;;;;8455484;28;20230;-68
2022/01/21 10:30:26;;;;;;;4.60;1.07;;;-0.40;1.00;;;;;;8484384;27;20187;-68
2022/01/21 10:34:43;;;;;;;4.07;1.13;;;-0.30;2.80;;;;;;8482661;27;20188;-68
2022/01/21 10:38:47;;;;;;;7.30;1.23;;;-0.30;1.00;;;;;;8490514;27;20190;-69
2022/01/21 10:42:48;;;;;;;5.97;1.27;;;-0.20;1.00;;;;;;8470927;27;20209;-69
2022/01/21 10:47:09;;;;;;;4.17;1.17;;;-0.10;1.00;;;;;;8479947;27;20213;-69
2022/01/21 10:51:25;;;;;;;5.03;1.07;;;-0.10;1.00;;;;;;8481636;27;20170;-68
2022/01/21 10:55:34;;;;;;;3.23;1.50;;;0.00;1.00;;;;;;8469878;27;20185;-69
2022/01/21 10:59:57;;;;;;;5.87;1.70;;;0.00;1.00;;;;;;8485296;27;20238;-68
2022/01/21 11:04:11;;;;;;;5.63;1.60;;;0.10;1.00;;;;;;8463264;27;20189;-68
2022/01/21 11:08:14;;;;;;;6.53;1.60;;;0.20;1.00;;;;;;8454623;28;20240;-71
2022/01/21 11:12:16;;;;;;;2.83;1.23;;;0.30;1.00;;;;;;8471091;27;20223;-68
2022/01/21 11:16:22;;;;;;;2.80;1.00;;;0.40;1.00;;;;;;8462990;27;20301;-68
2022/01/21 11:20:39;;;;;;;4.10;1.10;;;0.30;99.90;;;;;;8486136;27;20187;-67
2022/01/21 11:24:48;;;;;;;5.33;1.57;;;0.30;1.00;;;;;;8468023;27;20190;-68
2022/01/21 11:28:50;;;;;;;5.83;1.23;;;0.30;1.00;;;;;;8480937;27;20203;-67
2022/01/21 11:32:51;;;;;;;3.97;1.07;;;0.30;1.00;;;;;;8479035;27;20357;-67
2022/01/21 11:36:53;;;;;;;5.10;1.97;;;0.30;1.00;;;;;;8454244;27;20285;-69
2022/01/21 11:40:54;;;;;;;5.07;1.40;;;0.30;1.00;;;;;;8469102;27;20190;-71
2022/01/21 11:45:04;;;;;;;9.13;1.57;;;0.40;1.00;;;;;;8475390;27;20186;-70
2022/01/21 11:49:17;;;;;;;7.43;1.37;;;0.40;1.00;;;;;;8478994;27;20203;-68
2022/01/21 11:53:43;;;;;;;4.47;1.50;;;0.50;1.00;;;;;;8488020;27;20232;-69
2022/01/21 11:57:44;;;;;;;5.00;1.30;;;0.70;1.00;;;;;;8483629;27;20255;-68
2022/01/21 12:01:49;;;;;;;7.20;1.20;;;0.70;1.00;;;;;;8473520;27;20411;-69
2022/01/21 12:05:51;;;;;;;2.87;1.40;;;0.60;1.00;;;;;;8452063;28;20232;-68
2022/01/21 12:09:56;;;;;;;4.13;1.37;;;0.60;1.00;;;;;;8461725;27;20257;-69
2022/01/21 12:13:57;;;;;;;2.97;1.10;;;0.60;1.00;;;;;;8475843;27;20178;-68
2022/01/21 12:18:39;;;;;;;6.37;1.37;;;0.70;1.00;;;;;;8486876;27;20255;-70
2022/01/21 12:22:40;;;;;;;5.10;1.47;;;0.60;1.00;;;;;;8451608;27;20240;-68
2022/01/21 12:26:55;;;;;;;3.90;1.30;;;0.60;6.90;;;;;;8454527;27;20203;-68
2022/01/21 12:30:56;;;;;;;9.23;2.27;;;0.70;47.90;;;;;;8476378;27;20301;-75
2022/01/21 12:35:01;;;;;;;4.63;1.10;;;0.80;1.00;;;;;;8483869;27;20176;-68
2022/01/21 12:39:24;;;;;;;2.83;1.27;;;0.80;1.00;;;;;;8472764;27;20204;-68
2022/01/21 12:43:48;;;;;;;4.17;1.20;;;0.90;1.00;;;;;;8469451;27;20218;-68
2022/01/21 12:47:49;;;;;;;3.20;1.30;;;0.90;16.40;;;;;;8483387;27;20199;-69
2022/01/21 12:52:08;;;;;;;3.27;1.17;;;1.00;99.90;;;;;;8485206;28;20206;-68
2022/01/21 12:56:12;;;;;;;5.30;1.50;;;1.00;1.00;;;;;;8473882;27;20198;-68
2022/01/21 13:00:13;;;;;;;7.30;1.50;;;1.20;99.90;;;;;;8478607;28;20190;-67
2022/01/21 13:04:41;;;;;;;5.70;1.20;;;1.30;99.90;;;;;;8462333;27;20175;-69
2022/01/21 13:09:05;;;;;;;5.10;1.47;;;1.20;99.90;;;;;;8466069;27;20233;-68
2022/01/21 13:17:12;;;;;;;3.67;1.20;;;1.10;99.90;;;;;;8481912;27;20270;-68
2022/01/21 13:21:13;;;;;;;3.83;1.37;;;1.10;99.90;;;;;;8466940;27;20244;-68
2022/01/21 13:25:16;;;;;;;3.97;1.40;;;1.10;1.00;;;;;;8472961;27;20263;-68
2022/01/21 13:29:16;;;;;;;2.00;1.27;;;1.10;99.90;;;;;;8479255;27;20203;-67
2022/01/21 13:33:17;;;;;;;5.10;1.57;;;1.00;99.90;;;;;;8480941;27;20175;-69
2022/01/21 13:37:18;;;;;;;3.43;1.10;;;0.90;99.90;;;;;;8492033;27;20186;-68
2022/01/21 13:41:21;;;;;;;4.13;1.37;;;0.90;1.00;;;;;;8483617;27;20179;-68
2022/01/21 13:45:21;;;;;;;4.33;1.40;;;1.00;1.00;;;;;;8482790;27;20188;-68
2022/01/21 13:49:24;;;;;;;9.33;2.60;;;1.10;99.90;;;;;;8466069;27;20238;-67
2022/01/21 13:53:26;;;;;;;5.37;2.43;;;1.10;99.90;;;;;;8455053;27;20184;-67
2022/01/21 13:57:28;;;;;;;6.83;2.10;;;1.10;99.90;;;;;;8440193;27;20199;-69
2022/01/21 14:01:30;;;;;;;4.80;1.20;;;1.20;1.00;;;;;;8433284;28;20218;-68
2022/01/21 14:05:41;;;;;;;2.17;1.00;;;1.20;1.00;;;;;;8429157;28;20195;-69
2022/01/21 14:09:42;;;;;;;6.27;1.67;;;1.20;99.90;;;;;;8439253;27;20261;-69
2022/01/21 14:13:46;;;;;;;5.57;1.53;;;1.10;99.90;;;;;;8450576;28;20191;-69
2022/01/21 14:17:47;;;;;;;4.03;1.50;;;1.00;1.00;;;;;;8454937;27;20211;-67
2022/01/21 14:21:50;;;;;;;5.43;1.30;;;0.90;1.00;;;;;;8468050;28;20191;-68
2022/01/21 14:25:52;;;;;;;5.50;1.17;;;0.90;1.00;;;;;;8467075;28;20211;-68
2022/01/21 14:30:06;;;;;;;5.57;1.77;;;1.00;1.00;;;;;;8451378;28;20255;-68
2022/01/21 14:34:13;;;;;;;4.30;1.37;;;1.00;1.00;;;;;;8443289;28;20228;-69
2022/01/21 14:38:18;;;;;;;4.13;2.03;;;1.00;99.90;;;;;;8444772;28;20252;-68
2022/01/21 14:42:25;;;;;;;6.67;2.00;;;0.90;1.00;;;;;;8441739;28;20187;-68
2022/01/21 14:46:28;;;;;;;4.90;1.30;;;0.80;1.00;;;;;;8443504;28;20211;-68
2022/01/21 14:50:29;;;;;;;3.37;1.00;;;0.80;1.00;;;;;;8441659;28;20187;-67
2022/01/21 14:54:38;;;;;;;2.20;1.00;;;0.60;1.00;;;;;;8464612;27;20194;-68
2022/01/21 14:58:39;;;;;;;2.27;1.43;;;0.60;1.00;;;;;;8423079;27;1316651;-68
2022/01/21 15:02:41;;;;;;;3.67;1.37;;;0.60;1.00;;;;;;8471717;27;20275;-67
2022/01/21 15:06:41;;;;;;;3.53;1.57;;;0.60;1.00;;;;;;8490109;27;20279;-67
2022/01/21 15:10:44;;;;;;;4.37;1.30;;;0.50;55.20;;;;;;8477320;27;20211;-68
2022/01/21 15:14:45;;;;;;;5.40;1.23;;;0.50;1.00;;;;;;8481246;27;20184;-69
2022/01/21 15:18:56;;;;;;;5.10;1.53;;;0.50;1.00;;;;;;8475435;27;20211;-67
2022/01/21 15:22:56;;;;;;;4.93;1.60;;;0.40;1.00;;;;;;8465486;27;20191;-68
2022/01/21 15:26:58;;;;;;;3.73;0.90;;;0.20;99.90;;;;;;8481133;27;20205;-68
2022/01/21 15:30:59;;;;;;;5.33;1.37;;;0.20;19.00;;;;;;8477015;27;20278;-68
2022/01/21 15:35:00;;;;;;;4.60;1.33;;;0.20;44.00;;;;;;8487232;27;20175;-68
2022/01/21 15:39:03;;;;;;;2.87;1.07;;;0.20;71.00;;;;;;8473831;27;20224;-69
2022/01/21 15:43:04;;;;;;;7.50;1.20;;;0.30;1.00;;;;;;8472518;27;20198;-68
2022/01/21 15:47:05;;;;;;;1.63;0.90;;;0.30;10.20;;;;;;8476172;27;20214;-68
2022/01/21 15:51:06;;;;;;;5.73;1.50;;;0.30;1.00;;;;;;8454670;28;20175;-68
2022/01/21 15:55:08;;;;;;;8.63;1.13;;;0.30;1.00;;;;;;8458261;27;20254;-67
2022/01/21 15:59:09;;;;;;;3.13;1.33;;;0.20;1.00;;;;;;8487078;27;20191;-65
2022/01/21 16:03:10;;;;;;;5.07;1.50;;;0.10;1.00;;;;;;8460781;27;20176;-66
2022/01/21 16:07:11;;;;;;;5.70;1.70;;;0.10;1.00;;;;;;8451771;27;20196;-65
2022/01/21 16:11:13;;;;;;;5.37;1.60;;;0.10;1.00;;;;;;8482565;27;20181;-66
2022/01/21 16:15:13;;;;;;;8.70;3.27;;;0.20;1.00;;;;;;8482237;27;20287;-64
2022/01/21 16:19:15;;;;;;;5.03;1.30;;;0.20;1.00;;;;;;8477586;27;20193;-65
2022/01/21 16:23:17;;;;;;;2.10;0.87;;;0.20;1.00;;;;;;8473513;27;20183;-64
2022/01/21 16:27:17;;;;;;;3.97;1.10;;;0.10;1.00;;;;;;8471527;27;20206;-66
2022/01/21 16:31:19;;;;;;;2.83;1.27;;;0.10;1.00;;;;;;8461560;27;20277;-64
2022/01/21 16:35:20;;;;;;;1.93;0.97;;;-0.10;1.00;;;;;;8486745;27;20212;-63
2022/01/21 16:39:21;;;;;;;6.23;1.03;;;-0.20;1.00;;;;;;8484609;27;20190;-64
2022/01/21 16:43:21;;;;;;;3.83;1.10;;;-0.30;1.00;;;;;;8485628;27;20181;-64
2022/01/21 16:47:22;;;;;;;10.30;1.10;;;-0.40;1.00;;;;;;8460761;27;20210;-64
2022/01/21 16:51:23;;;;;;;3.70;0.87;;;-0.50;1.00;;;;;;8470979;27;20193;-64
2022/01/21 16:55:24;;;;;;;3.97;0.97;;;-0.50;1.00;;;;;;8477028;27;20493;-64
2022/01/21 16:59:25;;;;;;;4.23;1.10;;;-0.50;54.60;;;;;;8468745;27;20190;-63
2022/01/21 17:03:26;;;;;;;4.33;1.60;;;-0.60;99.90;;;;;;8471598;27;20192;-66
2022/01/21 17:07:29;;;;;;;1.53;1.27;;;-0.70;99.90;;;;;;8473598;28;20211;-65
2022/01/21 17:11:31;;;;;;;4.53;1.37;;;-0.80;99.90;;;;;;8475248;27;20272;-65
2022/01/21 17:15:33;;;;;;;1.87;1.10;;;-0.80;99.90;;;;;;8474627;27;20198;-64
2022/01/21 17:19:34;;;;;;;5.17;1.63;;;-0.80;99.90;;;;;;8473264;28;20185;-65
2022/01/21 17:23:34;;;;;;;6.73;1.37;;;-0.80;99.90;;;;;;8458813;27;20325;-64
2022/01/21 17:27:35;;;;;;;4.33;1.47;;;-0.80;99.90;;;;;;8454605;28;20208;-67
2022/01/21 17:31:36;;;;;;;4.33;1.30;;;-0.90;99.90;;;;;;8481098;28;20186;-66
2022/01/21 17:35:38;;;;;;;1.97;0.87;;;-1.00;99.90;;;;;;8453682;28;20196;-64
2022/01/21 17:39:39;;;;;;;2.67;1.10;;;-1.10;99.90;;;;;;8473873;28;20187;-65
2022/01/21 17:43:40;;;;;;;4.83;1.27;;;-1.10;1.00;;;;;;8475155;27;20604;-64
2022/01/21 17:47:43;;;;;;;4.73;1.43;;;-1.10;1.00;;;;;;8468929;27;20286;-65
2022/01/21 17:51:45;;;;;;;4.87;0.80;;;-1.20;1.00;;;;;;8473107;27;20262;-65
2022/01/21 17:55:46;;;;;;;3.17;1.10;;;-1.10;1.00;;;;;;8468121;27;20192;-64
2022/01/21 17:59:46;;;;;;;3.40;1.30;;;-1.20;1.00;;;;;;8480857;27;20248;-70
2022/01/21 18:03:47;;;;;;;5.77;0.90;;;-1.20;1.00;;;;;;8478307;27;20200;-65
2022/01/21 18:07:48;;;;;;;2.43;1.10;;;-1.20;1.00;;;;;;8465104;27;20212;-66
2022/01/21 18:11:49;;;;;;;8.50;1.70;;;-1.30;79.30;;;;;;8477635;27;20221;-65
2022/01/21 18:15:52;;;;;;;4.47;0.90;;;-1.30;35.80;;;;;;8480861;27;20204;-65
2022/01/21 18:19:54;;;;;;;2.67;1.00;;;-1.30;1.00;;;;;;8468416;27;20183;-64
2022/01/21 18:23:55;;;;;;;3.67;1.20;;;-1.30;10.10;;;;;;8477755;27;20232;-65
2022/01/21 18:27:56;;;;;;;5.27;1.40;;;-1.30;95.80;;;;;;8491090;27;20207;-65
2022/01/21 18:31:57;;;;;;;2.37;1.23;;;-1.30;62.50;;;;;;8468365;27;20463;-66
2022/01/21 18:36:03;;;;;;;1.73;1.00;;;-1.40;14.10;;;;;;8488287;27;20263;-65
2022/01/21 18:40:04;;;;;;;4.20;0.90;;;-1.30;12.70;;;;;;8481588;27;20243;-64
2022/01/21 18:44:06;;;;;;;3.03;1.03;;;-1.20;1.00;;;;;;8466474;27;20538;-65
2022/01/21 18:48:09;;;;;;;4.20;1.20;;;-1.10;1.00;;;;;;8473227;27;20208;-66
2022/01/21 18:52:10;;;;;;;2.63;1.30;;;-1.10;1.00;;;;;;8473629;27;20185;-65
2022/01/21 18:56:13;;;;;;;1.77;1.00;;;-1.10;1.00;;;;;;8478506;27;20207;-65
2022/01/21 19:00:20;;;;;;;4.53;1.10;;;-1.10;1.00;;;;;;8483318;27;20189;-65
2022/01/21 19:04:21;;;;;;;2.47;1.10;;;-1.20;54.50;;;;;;8479788;27;20184;-65
2022/01/21 19:08:27;;;;;;;1.63;0.80;;;-1.20;8.90;;;;;;8490133;27;20206;-66
2022/01/21 19:12:28;;;;;;;2.80;0.80;;;-1.30;99.90;;;;;;8483822;27;20247;-67
2022/01/21 19:16:29;;;;;;;4.37;1.43;;;-1.30;39.50;;;;;;8471218;27;20264;-65
2022/01/21 19:20:30;;;;;;;2.23;1.20;;;-1.30;98.20;;;;;;8471504;27;20194;-67
2022/01/21 19:24:38;;;;;;;6.00;1.20;;;-1.40;99.90;;;;;;8479622;27;20172;-66
2022/01/21 19:28:42;;;;;;;3.87;1.23;;;-1.30;99.90;;;;;;8483668;27;20277;-65
2022/01/21 19:32:43;;;;;;;2.87;1.20;;;-1.40;99.90;;;;;;8463060;27;20181;-66
2022/01/21 19:36:45;;;;;;;2.60;1.20;;;-1.40;99.90;;;;;;8481391;27;20182;-66
2022/01/21 19:40:49;;;;;;;2.80;1.20;;;-1.30;99.90;;;;;;8484414;27;20180;-72
2022/01/21 19:44:56;;;;;;;4.20;1.60;;;-1.30;99.90;;;;;;8474593;27;20181;-66
2022/01/21 19:48:57;;;;;;;5.73;1.10;;;-1.30;99.90;;;;;;8471376;27;20232;-66
2022/01/21 19:53:02;;;;;;;3.13;1.00;;;-1.30;99.90;;;;;;8465815;27;20240;-67
2022/01/21 19:57:22;;;;;;;2.80;1.40;;;-1.20;99.90;;;;;;8474094;27;20195;-65
2022/01/21 20:01:36;;;;;;;2.27;1.50;;;-1.20;99.90;;;;;;8476481;27;20189;-66
2022/01/21 20:09:54;;;;;;;1.60;1.17;;;-1.00;99.90;;;;;;8479639;27;20216;-65
2022/01/21 20:14:05;;;;;;;5.73;1.47;;;-0.90;59.70;;;;;;8464187;27;20258;-66
2022/01/21 20:18:14;;;;;;;3.73;1.00;;;-0.80;99.90;;;;;;8484404;27;20201;-66
2022/01/21 20:22:15;;;;;;;2.57;1.00;;;-0.70;99.90;;;;;;8475434;27;20190;-71
2022/01/21 20:26:17;;;;;;;2.83;1.20;;;-0.70;99.90;;;;;;8453193;28;20182;-66
2022/01/21 20:30:18;;;;;;;4.30;1.10;;;-0.60;99.90;;;;;;8470312;27;20192;-66
2022/01/21 20:34:23;;;;;;;6.77;1.40;;;-0.60;99.90;;;;;;8469732;27;20181;-66
2022/01/21 20:38:31;;;;;;;5.37;1.17;;;-0.50;99.90;;;;;;8485873;27;20202;-66
2022/01/21 20:42:32;;;;;;;2.87;1.27;;;-0.40;99.90;;;;;;8472939;27;20212;-66
2022/01/21 20:46:33;;;;;;;4.70;1.23;;;-0.30;1.00;;;;;;8477732;27;20355;-67
2022/01/21 20:50:34;;;;;;;3.17;1.10;;;-0.20;1.00;;;;;;8453999;28;20181;-66
2022/01/21 20:54:35;;;;;;;2.13;0.93;;;-0.10;1.00;;;;;;8452380;28;20180;-65
2022/01/21 20:58:39;;;;;;;2.83;1.00;;;-0.10;1.00;;;;;;8474361;28;20212;-67
2022/01/21 21:02:40;;;;;;;5.50;1.40;;;-0.10;1.00;;;;;;8476915;28;20187;-66
2022/01/21 21:06:45;;;;;;;2.00;1.03;;;0.00;99.90;;;;;;8456431;28;20206;-67
2022/01/21 21:10:50;;;;;;;5.20;1.30;;;0.00;99.90;;;;;;8465783;28;20205;-67
2022/01/21 21:14:58;;;;;;;2.37;1.10;;;0.10;99.90;;;;;;8473991;28;20182;-66
2022/01/21 21:27:38;;;;;;;4.77;1.57;;;0.20;1.00;;;;;;8466693;27;20222;-67
2022/01/21 21:42:17;;;;;;;4.80;1.33;;;0.30;99.90;;;;;;8490099;27;20223;-67
2022/01/21 23:02:02;;;;;;;11.40;4.37;;;0.10;99.90;;;;;;8473026;27;20199;-66
2022/01/21 23:06:07;;;;;;;11.47;4.47;;;0.10;99.90;;;;;;8469655;27;20191;-66
2022/01/21 23:10:09;;;;;;;11.73;4.40;;;0.10;99.90;;;;;;8458940;27;20239;-67
2022/01/21 23:14:10;;;;;;;7.83;3.77;;;0.10;99.90;;;;;;8474230;27;20186;-67
2022/01/21 23:18:13;;;;;;;10.87;4.57;;;0.10;99.90;;;;;;8471691;27;20294;-67
2022/01/21 23:22:14;;;;;;;10.90;4.43;;;0.20;99.90;;;;;;8467207;27;20190;-66
2022/01/21 23:26:15;;;;;;;10.33;4.63;;;0.20;99.90;;;;;;8485949;27;20190;-66
2022/01/21 23:30:16;;;;;;;10.00;5.27;;;0.20;99.90;;;;;;8488445;27;20213;-68
2022/01/21 23:34:48;;;;;;;11.27;4.43;;;0.30;99.90;;;;;;8474108;27;20183;-66
2022/01/21 23:43:06;;;;;;;11.00;4.80;;;0.30;99.90;;;;;;8477316;27;20206;-66
2022/01/21 23:47:12;;;;;;;10.03;4.47;;;0.30;99.90;;;;;;8470258;27;20206;-67
2022/01/21 23:51:13;;;;;;;10.73;4.87;;;0.40;99.90;;;;;;8469323;27;20171;-67
2022/01/21 23:55:14;;;;;;;5.43;4.10;;;0.40;99.90;;;;;;8478584;27;20190;-66
2022/01/21 23:59:15;;;;;;;7.33;3.97;;;0.40;99.90;;;;;;8477146;27;20227;-66
